• Join FlightAware (Why Join?)
  • Login
  • US Flag 
02:30PM EDT


 

Airport Tracker/Info


-or-


 

Live Flight TrackerFlight Track Log ✈ N279D ✈ 30-Jun-2013 ✈ KVNY - KAPC

Flight Track Log - Related Links

Times and Time Zones

All times are in EDT time to prevent confusion due to time zone crossing. See the N279D flight status page for this flight to view local times or setup timezone preferences in your user account.

Time Position Orientation Groundspeed Altitude Reporting Facility
EDT Latitude Longitude Course Direction KTS MPH feet Rate Location/Type
09:06PM 34.1833 -118.4833 219° Southwest 170 196 2,600  Level Southern California TRACON
09:06PM 34.1544 -118.5114 219° Southwest 197 227 4,100 2,460 Climbing Los Angeles Center
09:07PM 34.1425 -118.5700 256° West 210 242 6,600 2,400 Climbing Los Angeles Center
09:08PM 34.1947 -118.5964 337° Northwest 220 253 9,100 2,460 Climbing Los Angeles Center
09:09PM 34.2586 -118.6067 352° North 228 262 11,700 2,400 Climbing Los Angeles Center
09:10PM 34.3228 -118.6286 344° North 239 275 14,100 2,280 Climbing Los Angeles Center
09:11PM 34.3892 -118.6606 338° Northwest 258 297 16,500 2,580 Climbing Los Angeles Center
09:12PM 34.4731 -118.7006 339° North 268 308 19,500 2,580 Climbing Los Angeles Center
09:13PM 34.5453 -118.7344 339° North 276 318 21,900 2,160 Climbing Los Angeles Center
09:14PM 34.6203 -118.7706 338° Northwest 291 335 24,000 1,980 Climbing Los Angeles Center
09:16PM 34.6969 -118.8106 337° Northwest 298 343 26,000 1,920 Climbing Los Angeles Center
09:17PM 34.7769 -118.8497 338° Northwest 310 357 28,000 1,980 Climbing Los Angeles Center
09:18PM 34.8497 -118.9131 324° Northwest 327 376 30,100 2,220 Climbing Los Angeles Center
09:19PM 34.9222 -118.9917 318° Northwest 313 360 32,600 2,040 Climbing Los Angeles Center
09:20PM 34.9744 -119.0472 319° Northwest 312 359 34,400 1,980 Climbing Los Angeles Center
09:21PM 35.0494 -119.1303 318° Northwest 303 349 36,700 1,440 Climbing Los Angeles Center
09:22PM 35.1139 -119.2000 318° Northwest 308 354 37,900 540 Climbing Los Angeles Center
09:23PM 35.2014 -119.2967 318° Northwest 353 406 38,000  Climbing Los Angeles Center
09:24PM 35.3022 -119.4075 318° Northwest 406 467 38,000  Level Los Angeles Center
09:25PM 35.3908 -119.5064 318° Northwest 427 491 38,000  Level Los Angeles Center
09:26PM 35.4800 -119.6047 318° Northwest 430 495 38,000  Level Los Angeles Center
09:27PM 35.5658 -119.7014 318° Northwest 425 489 38,000  Level Los Angeles Center
09:28PM 35.6703 -119.8203 317° Northwest 426 490 38,000  Level Los Angeles Center
09:29PM 35.7572 -119.9186 317° Northwest 426 490 38,000  Level Los Angeles Center
09:30PM 35.8436 -120.0164 317° Northwest 425 489 38,000  Level Los Angeles Center
09:31PM 35.9483 -120.1358 317° Northwest 427 491 38,000  Level Los Angeles Center
09:32PM 36.0356 -120.2372 317° Northwest 432 497 38,000  Level Los Angeles Center
09:33PM 36.1222 -120.3356 318° Northwest 428 493 38,000  Level Los Angeles Center
09:35PM 36.2278 -120.4525 318° Northwest 433 498 38,000  Level Oakland Center
09:36PM 36.3158 -120.5575 316° Northwest 439 505 38,000  Level Oakland Center
09:37PM 36.4222 -120.6800 317° Northwest 438 504 38,000  Level Oakland Center
09:38PM 36.5111 -120.7833 317° Northwest 438 504 38,000  Level Oakland Center
09:39PM 36.6003 -120.8828 318° Northwest 436 502 38,000  Level Oakland Center
09:40PM 36.6856 -120.9839 316° Northwest 427 491 38,000  Level Oakland Center
09:41PM 36.7706 -121.0817 317° Northwest 420 483 38,000 -360 Level Oakland Center
09:42PM 36.8544 -121.1811 317° Northwest 417 480 37,300 -840 Descending Oakland Center
09:43PM 36.9403 -121.2828 317° Northwest 421 484 36,300 -1,020 Descending Oakland Center
09:44PM 37.0242 -121.3889 315° West 426 490 35,300 -1,380 Descending Oakland Center
09:45PM 37.1006 -121.5003 311° West 425 489 33,600 -2,640 Descending Oakland Center
09:46PM 37.2078 -121.6297 316° Northwest 437 503 29,900 -3,420 Descending Oakland Center
09:47PM 37.3011 -121.7339 318° Northwest 444 511 26,700 -3,060 Descending Oakland Center
09:48PM 37.3842 -121.8281 318° Northwest 415 478 23,700 -2,940 Descending Oakland Center
09:49PM 37.4500 -121.9167 313° West 405 466 21,400 -2,880 Descending Northern Cal TRACON
09:50PM 37.5333 -122.0000 322° Northwest 386 444 18,900 -2,760 Descending Northern Cal TRACON
09:51PM 37.6000 -122.0833 315° West 366 421 16,200 -2,580 Descending Northern Cal TRACON
09:52PM 37.6833 -122.1667 322° Northwest 315 362 13,500 -1,560 Descending Northern Cal TRACON
09:54PM 37.8219 -122.3489 314° West 329 379 10,900 -1,440 Descending Oakland Center
09:55PM 37.8989 -122.4419 316° Northwest 323 372 8,800 -1,920 Descending Oakland Center
09:56PM 37.9744 -122.4294 North 295 339 7,000 -1,860 Descending Oakland Center
09:57PM 38.0450 -122.3981 19° North 276 318 5,100 -1,860 Descending Oakland Center
09:58PM 38.1119 -122.3658 21° North 264 304 3,300 -1,560 Descending Oakland Center
09:59PM 38.1736 -122.3367 20° North 245 282 2,000 -1,020 Descending Oakland Center
10:00PM 38.2214 -122.3156 19° North 202 232 1,300 -660 Descending Oakland Center
10:01PM 38.2564 -122.2961 24° Northeast 160 184 700 -600 Descending Oakland Center